createdAt,value
2023-03-29T00:00:29.256Z,100735.19
2023-03-29T00:01:35.516Z,100734.41
2023-03-29T00:02:30.450Z,100731.00
2023-03-29T00:03:17.977Z,100724.16
2023-03-29T00:04:05.269Z,100732.84
2023-03-29T00:04:53.818Z,100729.91
2023-03-29T00:05:41.457Z,100723.12
2023-03-29T00:06:33.348Z,100729.94
2023-03-29T00:07:23.853Z,100733.13
2023-03-29T00:08:14.853Z,100730.72
2023-03-29T00:09:05.462Z,100731.78
2023-03-29T00:09:53.098Z,100727.56
2023-03-29T00:10:40.210Z,100733.88
2023-03-29T00:11:27.862Z,100732.00
2023-03-29T00:12:14.780Z,100727.78
2023-03-29T00:13:02.459Z,100728.44
2023-03-29T00:13:50.291Z,100732.50
2023-03-29T00:14:37.253Z,100725.69
2023-03-29T00:15:24.377Z,100732.59
2023-03-29T00:16:13.177Z,100735.31
2023-03-29T00:17:00.254Z,100730.81
2023-03-29T00:17:47.312Z,100730.69
2023-03-29T00:18:34.389Z,100728.81
2023-03-29T00:19:21.631Z,100732.69
2023-03-29T00:20:12.591Z,100734.59
2023-03-29T00:21:00.450Z,100728.72
2023-03-29T00:21:47.643Z,100729.91
2023-03-29T00:22:34.608Z,100735.47
2023-03-29T00:23:22.868Z,100737.31
2023-03-29T00:24:09.875Z,100735.22
2023-03-29T00:24:57.124Z,100739.31
2023-03-29T00:25:47.188Z,100736.03
2023-03-29T00:26:34.138Z,100731.22
2023-03-29T00:27:22.242Z,100739.81
2023-03-29T00:28:09.173Z,100729.16
2023-03-29T00:28:56.133Z,100736.25
2023-03-29T00:29:43.089Z,100736.94
2023-03-29T00:30:30.142Z,100730.66
2023-03-29T00:31:18.084Z,100729.97
2023-03-29T00:32:05.383Z,100729.31
2023-03-29T00:32:52.614Z,100733.81
2023-03-29T00:33:40.571Z,100730.84
2023-03-29T00:34:31.650Z,100723.09
2023-03-29T00:35:18.870Z,100724.50
2023-03-29T00:36:06.689Z,100722.13
2023-03-29T00:36:58.421Z,100717.19
2023-03-29T00:37:47.366Z,100716.25
2023-03-29T00:38:34.706Z,100717.66
2023-03-29T00:39:22.133Z,100713.09
2023-03-29T00:40:11.289Z,100716.31
2023-03-29T00:40:58.331Z,100720.84
2023-03-29T00:41:47.068Z,100721.06
2023-03-29T00:42:33.986Z,100722.31
2023-03-29T00:43:21.037Z,100718.44
2023-03-29T00:44:46.093Z,100723.12
2023-03-29T00:45:36.081Z,100714.66
2023-03-29T00:46:24.583Z,100720.06
2023-03-29T00:47:11.703Z,100717.00
2023-03-29T00:48:03.547Z,100717.06
2023-03-29T00:48:53.810Z,100717.31
2023-03-29T00:49:40.786Z,100717.19
2023-03-29T00:50:41.428Z,100712.66
2023-03-29T00:51:31.157Z,100707.38
2023-03-29T00:52:21.609Z,100707.94
2023-03-29T00:53:15.408Z,100709.47
2023-03-29T00:54:04.377Z,100711.09
2023-03-29T00:54:54.893Z,100715.00
2023-03-29T00:56:14.263Z,100708.81
2023-03-29T00:57:04.347Z,100710.03
2023-03-29T00:57:52.577Z,100707.75
2023-03-29T00:59:05.131Z,100702.16
2023-03-29T00:59:52.409Z,100704.09
2023-03-29T01:00:52.362Z,100706.34
2023-03-29T01:01:44.155Z,100707.28
2023-03-29T01:02:34.934Z,100703.53
2023-03-29T01:03:26.178Z,100710.03
2023-03-29T01:04:18.550Z,100705.19
2023-03-29T01:05:09.978Z,100705.63
2023-03-29T01:06:05.267Z,100708.09
2023-03-29T01:06:58.632Z,100708.37
2023-03-29T01:07:53.940Z,100713.44
2023-03-29T01:08:45.895Z,100702.78
2023-03-29T01:09:35.331Z,100701.81
2023-03-29T01:10:30.813Z,100699.47
2023-03-29T01:11:20.382Z,100701.19
2023-03-29T01:12:21.510Z,100695.75
2023-03-29T01:13:11.916Z,100694.63
2023-03-29T01:14:04.023Z,100688.91
2023-03-29T01:14:54.362Z,100697.34
2023-03-29T01:15:44.493Z,100691.72
2023-03-29T01:16:33.328Z,100696.50
2023-03-29T01:17:22.091Z,100692.22
2023-03-29T01:18:09.886Z,100697.13
2023-03-29T01:18:58.528Z,100692.56
2023-03-29T01:19:58.367Z,100692.56
2023-03-29T01:21:07.428Z,100689.97
2023-03-29T01:22:38.856Z,100689.06
2023-03-29T01:23:27.196Z,100682.94
2023-03-29T01:24:42.258Z,100683.63
2023-03-29T01:25:48.490Z,100682.44
2023-03-29T01:26:55.673Z,100686.38
2023-03-29T01:28:02.686Z,100679.69
2023-03-29T01:28:58.609Z,100678.44
2023-03-29T01:30:01.312Z,100678.00
2023-03-29T01:31:19.184Z,100682.16
2023-03-29T01:32:17.471Z,100673.59
2023-03-29T01:33:31.833Z,100672.91
2023-03-29T01:34:30.853Z,100673.53
2023-03-29T01:35:32.832Z,100667.47
2023-03-29T01:36:35.310Z,100676.16
2023-03-29T01:37:26.777Z,100674.31
2023-03-29T01:38:15.695Z,100669.53
2023-03-29T01:39:07.306Z,100678.44
2023-03-29T01:39:54.391Z,100676.88
2023-03-29T01:40:41.795Z,100676.00
2023-03-29T01:42:04.302Z,100678.50
2023-03-29T01:42:53.912Z,100682.28
2023-03-29T01:43:56.099Z,100680.09
2023-03-29T01:44:50.173Z,100683.56
2023-03-29T01:45:49.670Z,100675.31
2023-03-29T01:46:53.816Z,100673.09
2023-03-29T01:47:58.973Z,100683.06
2023-03-29T01:48:50.441Z,100677.78
2023-03-29T01:49:42.496Z,100674.59
2023-03-29T01:50:49.068Z,100674.87
2023-03-29T01:51:39.152Z,100673.59
2023-03-29T01:52:31.664Z,100674.03
2023-03-29T01:53:40.864Z,100683.16
2023-03-29T01:54:37.611Z,100675.59
2023-03-29T01:55:27.795Z,100681.72
2023-03-29T01:56:23.094Z,100685.94
2023-03-29T01:57:10.964Z,100686.78
2023-03-29T01:57:59.948Z,100681.31
2023-03-29T01:58:51.481Z,100685.63
2023-03-29T01:59:41.516Z,100691.44
2023-03-29T02:00:29.738Z,100690.75
2023-03-29T02:01:20.445Z,100693.44
2023-03-29T02:02:08.451Z,100685.69
2023-03-29T02:03:00.417Z,100686.34
2023-03-29T02:03:51.025Z,100689.34
2023-03-29T02:04:40.634Z,100688.44
2023-03-29T02:05:29.249Z,100683.00
2023-03-29T02:06:20.807Z,100686.78
2023-03-29T02:07:09.168Z,100681.88
2023-03-29T02:07:57.753Z,100685.78
2023-03-29T02:08:45.480Z,100684.50
2023-03-29T02:09:32.986Z,100686.47
2023-03-29T02:10:21.021Z,100685.91
2023-03-29T02:11:08.838Z,100686.00
2023-03-29T02:11:59.270Z,100687.13
2023-03-29T02:12:46.273Z,100685.78
2023-03-29T02:13:33.522Z,100686.56
2023-03-29T02:14:21.450Z,100685.91
2023-03-29T02:15:16.814Z,100682.66
2023-03-29T02:16:08.575Z,100680.72
2023-03-29T02:16:55.575Z,100684.06
2023-03-29T02:17:44.422Z,100691.19
2023-03-29T02:18:31.619Z,100682.88
2023-03-29T02:19:19.583Z,100687.00
2023-03-29T02:20:14.782Z,100696.53
2023-03-29T02:21:02.599Z,100693.38
2023-03-29T02:22:08.655Z,100688.25
2023-03-29T02:23:08.547Z,100680.09
2023-03-29T02:23:56.269Z,100689.22
2023-03-29T02:24:45.591Z,100688.31
2023-03-29T02:25:32.837Z,100687.94
2023-03-29T02:26:19.824Z,100687.87
2023-03-29T02:27:06.817Z,100686.28
2023-03-29T02:27:54.250Z,100680.84
2023-03-29T02:28:42.248Z,100684.63
2023-03-29T02:29:29.356Z,100679.78
2023-03-29T02:30:17.911Z,100690.87
2023-03-29T02:31:07.813Z,100687.59
2023-03-29T02:32:10.698Z,100691.03
2023-03-29T02:32:59.741Z,100685.63
2023-03-29T02:34:11.555Z,100685.06
2023-03-29T02:35:02.306Z,100690.00
2023-03-29T02:35:53.504Z,100685.88
2023-03-29T02:36:50.669Z,100683.00
2023-03-29T02:37:41.231Z,100682.88
2023-03-29T02:38:28.099Z,100688.34
2023-03-29T02:39:16.903Z,100688.25
2023-03-29T02:40:13.181Z,100685.78
2023-03-29T02:41:00.964Z,100685.63
2023-03-29T02:41:50.255Z,100682.41
2023-03-29T02:42:37.697Z,100682.09
2023-03-29T02:43:26.034Z,100679.97
2023-03-29T02:44:15.723Z,100683.38
2023-03-29T02:45:03.343Z,100672.50
2023-03-29T02:45:50.734Z,100679.34
2023-03-29T02:46:38.637Z,100675.62
2023-03-29T02:47:31.633Z,100681.91
2023-03-29T02:48:22.156Z,100676.91
2023-03-29T02:49:10.620Z,100671.06
2023-03-29T02:49:57.970Z,100673.47
2023-03-29T02:50:48.246Z,100670.66
2023-03-29T02:51:36.259Z,100667.44
2023-03-29T02:52:27.707Z,100663.44
2023-03-29T02:53:21.173Z,100667.34
2023-03-29T02:54:13.637Z,100671.16
2023-03-29T02:55:03.389Z,100670.97
2023-03-29T02:55:50.402Z,100668.44
2023-03-29T02:57:06.776Z,100678.56
2023-03-29T02:57:53.778Z,100665.09
2023-03-29T02:58:42.493Z,100657.56
2023-03-29T02:59:30.302Z,100665.59
2023-03-29T03:00:19.214Z,100651.06
2023-03-29T03:01:07.230Z,100657.34
2023-03-29T03:01:54.249Z,100654.69
2023-03-29T03:02:42.030Z,100654.72
2023-03-29T03:03:29.568Z,100658.66
2023-03-29T03:04:19.135Z,100664.19
2023-03-29T03:05:06.623Z,100655.06
2023-03-29T03:05:54.159Z,100651.03
2023-03-29T03:06:41.517Z,100654.94
2023-03-29T03:07:28.938Z,100642.44
2023-03-29T03:08:18.413Z,100657.72
2023-03-29T03:09:06.338Z,100648.16
2023-03-29T03:09:53.460Z,100648.56
2023-03-29T03:10:41.223Z,100652.94
2023-03-29T03:11:28.230Z,100654.56
2023-03-29T03:12:15.149Z,100659.38
2023-03-29T03:13:02.505Z,100652.91
2023-03-29T03:13:49.561Z,100649.09
2023-03-29T03:14:36.545Z,100653.69
2023-03-29T03:15:23.457Z,100649.97
2023-03-29T03:16:10.522Z,100649.69
2023-03-29T03:16:58.144Z,100648.25
2023-03-29T03:17:46.812Z,100642.47
2023-03-29T03:18:34.097Z,100645.25
2023-03-29T03:19:21.626Z,100649.06
2023-03-29T03:20:13.326Z,100643.94
2023-03-29T03:21:04.799Z,100640.87
2023-03-29T03:21:52.064Z,100650.41
2023-03-29T03:22:44.384Z,100648.72
2023-03-29T03:23:31.377Z,100651.69
2023-03-29T03:24:18.657Z,100646.81
2023-03-29T03:25:06.061Z,100653.44
2023-03-29T03:25:53.138Z,100659.44
2023-03-29T03:26:40.093Z,100655.75
2023-03-29T03:27:27.313Z,100658.41
2023-03-29T03:28:14.289Z,100659.47
2023-03-29T03:29:01.420Z,100659.12
2023-03-29T03:29:48.833Z,100666.72
2023-03-29T03:30:35.731Z,100669.00
2023-03-29T03:31:22.826Z,100663.44
2023-03-29T03:32:10.267Z,100661.72
2023-03-29T03:32:57.337Z,100668.78
2023-03-29T03:33:45.030Z,100667.47
2023-03-29T03:34:31.906Z,100670.59
2023-03-29T03:35:19.303Z,100670.97
2023-03-29T03:36:07.139Z,100678.75
2023-03-29T03:36:55.705Z,100677.91
2023-03-29T03:37:43.461Z,100679.28
2023-03-29T03:38:31.235Z,100681.63
2023-03-29T03:39:18.497Z,100680.31
2023-03-29T03:40:12.104Z,100685.53
2023-03-29T03:40:59.958Z,100688.97
2023-03-29T03:41:47.244Z,100690.81
2023-03-29T03:42:34.175Z,100695.44
2023-03-29T03:43:21.068Z,100696.75
2023-03-29T03:44:08.085Z,100697.19
2023-03-29T03:44:55.144Z,100703.59
2023-03-29T03:45:43.259Z,100696.22
2023-03-29T03:46:30.184Z,100700.78
2023-03-29T03:47:17.185Z,100703.69
2023-03-29T03:48:04.336Z,100704.84
2023-03-29T03:48:51.722Z,100703.69
2023-03-29T03:49:38.610Z,100705.28
2023-03-29T03:50:25.682Z,100704.87
2023-03-29T03:51:12.658Z,100708.44
2023-03-29T03:52:00.138Z,100712.56
2023-03-29T03:52:47.078Z,100711.34
2023-03-29T03:53:34.395Z,100706.06
2023-03-29T03:54:21.383Z,100714.28
2023-03-29T03:55:09.579Z,100709.66
2023-03-29T03:55:56.598Z,100711.72
2023-03-29T03:56:43.741Z,100705.44
2023-03-29T03:57:33.444Z,100707.84
2023-03-29T03:58:20.985Z,100708.47
2023-03-29T03:59:07.889Z,100711.22
2023-03-29T03:59:54.834Z,100718.59
2023-03-29T04:00:42.068Z,100710.22
2023-03-29T04:01:29.370Z,100714.59
2023-03-29T04:02:16.658Z,100715.44
2023-03-29T04:03:06.452Z,100707.81
2023-03-29T04:03:54.092Z,100707.94
2023-03-29T04:04:41.548Z,100705.34
2023-03-29T04:05:28.559Z,100710.78
2023-03-29T04:06:15.633Z,100705.66
2023-03-29T04:07:05.697Z,100703.94
2023-03-29T04:07:52.843Z,100707.22
2023-03-29T04:08:40.738Z,100706.03
2023-03-29T04:09:27.721Z,100707.69
2023-03-29T04:10:14.665Z,100693.12
2023-03-29T04:11:01.913Z,100704.44
2023-03-29T04:11:49.920Z,100698.63
2023-03-29T04:12:37.563Z,100692.81
2023-03-29T04:13:25.910Z,100692.88
2023-03-29T04:14:12.847Z,100694.97
2023-03-29T04:14:59.926Z,100688.41
2023-03-29T04:15:50.973Z,100685.84
2023-03-29T04:16:37.894Z,100681.09
2023-03-29T04:17:24.850Z,100685.06
2023-03-29T04:18:12.637Z,100693.03
2023-03-29T04:18:59.696Z,100687.34
2023-03-29T04:19:46.977Z,100686.50
2023-03-29T04:20:33.935Z,100690.63
2023-03-29T04:21:21.431Z,100686.97
2023-03-29T04:22:08.455Z,100685.34
2023-03-29T04:22:55.468Z,100686.50
2023-03-29T04:23:43.335Z,100691.84
2023-03-29T04:24:30.420Z,100680.69
2023-03-29T04:25:18.232Z,100683.81
2023-03-29T04:26:05.493Z,100682.91
2023-03-29T04:26:52.457Z,100676.03
2023-03-29T04:27:39.588Z,100678.31
2023-03-29T04:28:26.600Z,100675.88
2023-03-29T04:29:13.758Z,100680.25
2023-03-29T04:30:00.676Z,100684.22
2023-03-29T04:30:48.458Z,100684.03
2023-03-29T04:31:35.500Z,100681.09
2023-03-29T04:32:22.471Z,100682.25
2023-03-29T04:33:10.594Z,100673.25
2023-03-29T04:34:00.244Z,100672.84
2023-03-29T04:34:47.464Z,100679.41
2023-03-29T04:35:34.609Z,100681.72
2023-03-29T04:36:21.761Z,100681.25
2023-03-29T04:37:10.799Z,100674.69
2023-03-29T04:37:57.761Z,100680.44
2023-03-29T04:38:47.662Z,100682.06
2023-03-29T04:39:35.144Z,100679.00
2023-03-29T04:40:22.568Z,100670.22
2023-03-29T04:41:09.639Z,100681.28
2023-03-29T04:41:56.661Z,100671.09
2023-03-29T04:42:45.019Z,100679.84
2023-03-29T04:43:32.089Z,100676.56
2023-03-29T04:44:19.111Z,100678.03
2023-03-29T04:45:07.475Z,100677.97
2023-03-29T04:45:55.477Z,100676.25
2023-03-29T04:46:43.245Z,100677.47
2023-03-29T04:47:31.490Z,100672.00
2023-03-29T04:48:18.536Z,100675.66
2023-03-29T04:49:06.090Z,100673.81
2023-03-29T04:49:53.030Z,100674.06
2023-03-29T04:50:40.293Z,100678.50
2023-03-29T04:51:27.808Z,100670.38
2023-03-29T04:52:14.973Z,100670.91
2023-03-29T04:53:02.030Z,100680.38
2023-03-29T04:53:53.108Z,100673.22
2023-03-29T04:54:40.113Z,100675.09
2023-03-29T04:55:27.116Z,100668.56
2023-03-29T04:56:14.034Z,100672.44
2023-03-29T04:57:01.050Z,100675.03
2023-03-29T04:57:48.057Z,100673.22
2023-03-29T04:58:35.050Z,100673.69
2023-03-29T04:59:22.090Z,100672.66
2023-03-29T05:00:15.510Z,100668.88
2023-03-29T05:01:04.062Z,100666.91
2023-03-29T05:01:51.339Z,100660.06
2023-03-29T05:02:38.937Z,100660.94
2023-03-29T05:03:27.254Z,100661.88
2023-03-29T05:04:14.498Z,100662.66
2023-03-29T05:05:01.618Z,100658.84
2023-03-29T05:05:48.614Z,100660.44
2023-03-29T05:06:35.686Z,100659.53
2023-03-29T05:07:23.242Z,100664.00
2023-03-29T05:08:10.925Z,100661.28
2023-03-29T05:08:57.869Z,100663.66
2023-03-29T05:09:45.571Z,100659.34
2023-03-29T05:10:32.498Z,100657.16
2023-03-29T05:11:20.121Z,100653.13
2023-03-29T05:12:07.276Z,100651.84
2023-03-29T05:12:54.566Z,100653.13
2023-03-29T05:13:43.204Z,100657.13
2023-03-29T05:14:30.963Z,100651.59
2023-03-29T05:15:18.108Z,100650.66
2023-03-29T05:16:06.040Z,100656.44
2023-03-29T05:16:53.303Z,100651.75
2023-03-29T05:17:41.067Z,100649.88
2023-03-29T05:18:29.912Z,100652.59
2023-03-29T05:19:17.063Z,100651.66
2023-03-29T05:20:11.382Z,100648.31
2023-03-29T05:21:00.013Z,100656.25
2023-03-29T05:21:47.745Z,100651.56
2023-03-29T05:22:34.795Z,100649.97
2023-03-29T05:23:23.204Z,100653.72
2023-03-29T05:24:11.253Z,100651.22
2023-03-29T05:24:59.697Z,100646.00
2023-03-29T05:25:50.330Z,100644.75
2023-03-29T05:26:37.537Z,100644.13
2023-03-29T05:27:25.060Z,100651.72
2023-03-29T05:28:12.368Z,100638.88
2023-03-29T05:28:59.593Z,100641.34
2023-03-29T05:29:47.033Z,100644.31
2023-03-29T05:30:34.095Z,100637.00
2023-03-29T05:31:21.165Z,100636.16
2023-03-29T05:32:08.800Z,100641.03
2023-03-29T05:32:55.852Z,100639.63
2023-03-29T05:33:43.159Z,100645.69
2023-03-29T05:34:31.674Z,100640.87
2023-03-29T05:35:19.230Z,100642.28
2023-03-29T05:36:08.529Z,100644.47
2023-03-29T05:36:57.072Z,100633.50
2023-03-29T05:37:44.046Z,100633.97
2023-03-29T05:38:33.016Z,100637.84
2023-03-29T05:39:21.351Z,100643.53
2023-03-29T05:40:10.634Z,100645.53
2023-03-29T05:40:57.830Z,100636.13
2023-03-29T05:41:44.884Z,100638.78
2023-03-29T05:42:31.945Z,100641.91
2023-03-29T05:43:19.004Z,100638.13
2023-03-29T05:44:06.751Z,100649.94
2023-03-29T05:44:54.725Z,100643.31
2023-03-29T05:45:41.923Z,100650.28
2023-03-29T05:46:28.973Z,100645.34
2023-03-29T05:47:15.995Z,100644.34
2023-03-29T05:48:04.182Z,100640.87
2023-03-29T05:48:52.488Z,100650.81
2023-03-29T05:49:39.840Z,100644.75
2023-03-29T05:50:26.808Z,100647.09
2023-03-29T05:51:13.844Z,100640.84
2023-03-29T05:52:00.859Z,100639.81
2023-03-29T05:52:48.070Z,100639.19
2023-03-29T05:53:35.565Z,100642.19
2023-03-29T05:54:23.463Z,100648.69
2023-03-29T05:55:10.850Z,100644.44
2023-03-29T05:55:58.042Z,100652.72
2023-03-29T05:56:45.165Z,100646.13
2023-03-29T05:57:32.090Z,100647.19
2023-03-29T05:58:20.424Z,100648.03
2023-03-29T05:59:08.676Z,100650.03
2023-03-29T05:59:56.740Z,100643.78
2023-03-29T06:00:44.066Z,100646.84
2023-03-29T06:01:31.213Z,100645.25
2023-03-29T06:02:19.056Z,100642.03
2023-03-29T06:03:19.983Z,100646.66
2023-03-29T06:04:08.168Z,100651.72
2023-03-29T06:04:55.583Z,100646.63
2023-03-29T06:05:42.650Z,100640.09
2023-03-29T06:06:29.838Z,100649.28
2023-03-29T06:07:16.952Z,100645.25
2023-03-29T06:08:04.280Z,100648.97
2023-03-29T06:08:51.442Z,100639.94
2023-03-29T06:09:40.007Z,100644.94
2023-03-29T06:10:27.436Z,100654.56
2023-03-29T06:11:16.004Z,100648.16
2023-03-29T06:12:03.133Z,100653.13
2023-03-29T06:12:50.517Z,100653.53
2023-03-29T06:13:39.221Z,100656.50
2023-03-29T06:14:27.481Z,100654.34
2023-03-29T06:15:16.248Z,100658.38
2023-03-29T06:16:04.540Z,100652.41
2023-03-29T06:16:52.079Z,100648.53
2023-03-29T06:17:40.240Z,100651.00
2023-03-29T06:18:28.337Z,100644.03
2023-03-29T06:19:15.561Z,100643.69
2023-03-29T06:20:05.128Z,100642.34
2023-03-29T06:20:53.209Z,100648.66
2023-03-29T06:21:41.554Z,100641.22
2023-03-29T06:22:28.746Z,100642.78
2023-03-29T06:23:15.892Z,100645.25
2023-03-29T06:24:03.241Z,100642.97
2023-03-29T06:24:50.496Z,100647.50
2023-03-29T06:25:37.558Z,100647.91
2023-03-29T06:26:25.366Z,100638.28
2023-03-29T06:27:12.678Z,100646.72
2023-03-29T06:27:59.992Z,100638.09
2023-03-29T06:28:49.835Z,100646.38
2023-03-29T06:29:38.642Z,100642.94
2023-03-29T06:30:26.233Z,100639.25
2023-03-29T06:31:13.480Z,100640.91
2023-03-29T06:32:00.565Z,100641.34
2023-03-29T06:32:49.779Z,100643.00
2023-03-29T06:33:38.478Z,100642.44
2023-03-29T06:34:25.757Z,100642.22
2023-03-29T06:35:12.895Z,100647.31
2023-03-29T06:36:00.153Z,100646.13
2023-03-29T06:36:47.908Z,100650.09
2023-03-29T06:37:35.119Z,100654.00
2023-03-29T06:38:22.909Z,100653.41
2023-03-29T06:39:10.246Z,100652.56
2023-03-29T06:39:57.442Z,100648.34
2023-03-29T06:40:45.056Z,100651.41
2023-03-29T06:41:32.124Z,100651.88
2023-03-29T06:42:21.512Z,100652.25
2023-03-29T06:43:09.433Z,100650.41
2023-03-29T06:43:56.560Z,100647.53
2023-03-29T06:44:43.944Z,100645.84
2023-03-29T06:45:38.319Z,100643.91
2023-03-29T06:46:25.623Z,100641.72
2023-03-29T06:47:13.862Z,100646.22
2023-03-29T06:48:01.038Z,100640.97
2023-03-29T06:48:48.596Z,100646.44
2023-03-29T06:49:35.742Z,100637.22
2023-03-29T06:50:23.785Z,100639.03
2023-03-29T06:51:11.911Z,100639.00
2023-03-29T06:52:00.401Z,100640.44
2023-03-29T06:52:48.187Z,100636.66
2023-03-29T06:53:35.827Z,100641.72
2023-03-29T06:54:23.149Z,100643.25
2023-03-29T06:55:12.155Z,100641.09
2023-03-29T06:56:00.005Z,100644.13
2023-03-29T06:56:47.754Z,100644.06
2023-03-29T06:57:34.957Z,100641.94
2023-03-29T06:58:22.233Z,100645.34
2023-03-29T06:59:09.722Z,100640.72
2023-03-29T06:59:56.833Z,100642.66
2023-03-29T07:00:43.960Z,100635.28
2023-03-29T07:01:31.434Z,100634.78
2023-03-29T07:02:18.611Z,100641.06
2023-03-29T07:03:10.114Z,100640.59
2023-03-29T07:03:57.969Z,100641.09
2023-03-29T07:04:45.494Z,100639.72
2023-03-29T07:05:33.767Z,100636.75
2023-03-29T07:06:21.065Z,100639.56
2023-03-29T07:07:12.598Z,100638.59
2023-03-29T07:08:17.586Z,100640.50
2023-03-29T07:09:06.999Z,100639.41
2023-03-29T07:09:56.738Z,100647.78
2023-03-29T07:10:47.680Z,100651.25
2023-03-29T07:11:36.155Z,100652.12
2023-03-29T07:12:23.473Z,100649.12
2023-03-29T07:13:15.111Z,100653.69
2023-03-29T07:14:05.672Z,100651.44
2023-03-29T07:14:53.844Z,100654.37
2023-03-29T07:15:41.928Z,100661.75
2023-03-29T07:16:29.252Z,100658.75
2023-03-29T07:17:17.035Z,100651.44
2023-03-29T07:18:05.114Z,100658.75
2023-03-29T07:18:52.409Z,100658.50
2023-03-29T07:19:39.695Z,100664.44
2023-03-29T07:20:27.375Z,100655.81
2023-03-29T07:21:14.610Z,100656.81
2023-03-29T07:22:01.894Z,100652.44
2023-03-29T07:22:51.571Z,100663.19
2023-03-29T07:23:39.788Z,100664.75
2023-03-29T07:24:26.872Z,100667.13
2023-03-29T07:25:14.373Z,100659.19
2023-03-29T07:26:02.910Z,100665.72
2023-03-29T07:27:03.390Z,100667.56
2023-03-29T07:27:54.914Z,100669.94
2023-03-29T07:28:43.510Z,100666.25
2023-03-29T07:29:30.771Z,100662.31
2023-03-29T07:30:19.972Z,100661.19
2023-03-29T07:31:11.355Z,100671.19
2023-03-29T07:31:58.475Z,100669.22
2023-03-29T07:32:46.925Z,100664.59
2023-03-29T07:33:34.808Z,100670.28
2023-03-29T07:34:22.971Z,100659.09
2023-03-29T07:35:11.143Z,100660.50
2023-03-29T07:35:59.580Z,100664.13
2023-03-29T07:36:48.098Z,100661.44
2023-03-29T07:37:37.745Z,100661.13
2023-03-29T07:38:25.593Z,100663.25
2023-03-29T07:39:15.932Z,100666.22
2023-03-29T07:40:09.689Z,100663.69
2023-03-29T07:40:56.845Z,100650.87
2023-03-29T07:41:44.075Z,100655.88
2023-03-29T07:42:31.214Z,100669.09
2023-03-29T07:43:18.617Z,100662.75
2023-03-29T07:44:09.296Z,100669.06
2023-03-29T07:44:56.231Z,100663.03
2023-03-29T07:45:45.039Z,100663.28
2023-03-29T07:46:32.043Z,100661.97
2023-03-29T07:47:21.156Z,100659.00
2023-03-29T07:48:08.846Z,100671.88
2023-03-29T07:48:56.994Z,100668.09
2023-03-29T07:49:44.287Z,100668.84
2023-03-29T07:50:32.784Z,100670.47
2023-03-29T07:51:19.835Z,100666.19
2023-03-29T07:52:07.404Z,100655.09
2023-03-29T07:52:54.586Z,100657.41
2023-03-29T07:53:41.765Z,100662.44
2023-03-29T07:54:29.004Z,100659.41
2023-03-29T07:55:16.882Z,100660.06
2023-03-29T07:56:05.027Z,100655.81
2023-03-29T07:56:52.120Z,100657.84
2023-03-29T07:57:39.248Z,100663.81
2023-03-29T07:58:26.225Z,100657.06
2023-03-29T07:59:13.768Z,100655.19
2023-03-29T08:00:00.833Z,100649.12
2023-03-29T08:00:49.680Z,100656.25
2023-03-29T08:01:36.790Z,100653.19
2023-03-29T08:02:23.926Z,100660.59
2023-03-29T08:03:13.849Z,100654.91
2023-03-29T08:04:01.214Z,100651.38
2023-03-29T08:04:48.439Z,100660.22
2023-03-29T08:05:41.450Z,100649.81
2023-03-29T08:06:29.272Z,100651.78
2023-03-29T08:07:19.484Z,100650.91
2023-03-29T08:08:07.278Z,100649.41
2023-03-29T08:08:54.430Z,100651.84
2023-03-29T08:09:41.482Z,100649.34
2023-03-29T08:10:28.837Z,100634.28
2023-03-29T08:11:15.916Z,100636.47
2023-03-29T08:12:03.065Z,100641.09
2023-03-29T08:12:51.064Z,100634.34
2023-03-29T08:13:38.040Z,100633.16
2023-03-29T08:14:25.305Z,100635.25
2023-03-29T08:15:13.636Z,100642.94
2023-03-29T08:16:00.643Z,100635.12
2023-03-29T08:16:47.982Z,100630.25
2023-03-29T08:17:36.533Z,100626.63
2023-03-29T08:18:23.594Z,100621.59
2023-03-29T08:19:10.808Z,100618.75
2023-03-29T08:19:57.911Z,100622.06
2023-03-29T08:20:45.139Z,100618.03
2023-03-29T08:21:32.415Z,100618.28
2023-03-29T08:22:19.658Z,100615.94
2023-03-29T08:23:06.953Z,100616.75
2023-03-29T08:23:54.002Z,100619.38
2023-03-29T08:24:41.787Z,100620.44
2023-03-29T08:25:28.796Z,100617.88
2023-03-29T08:26:16.366Z,100610.69
2023-03-29T08:27:05.036Z,100618.56
2023-03-29T08:27:52.205Z,100613.06
2023-03-29T08:28:39.839Z,100626.94
2023-03-29T08:29:27.833Z,100619.94
2023-03-29T08:30:15.951Z,100623.34
2023-03-29T08:31:03.347Z,100621.53
2023-03-29T08:31:50.580Z,100625.00
2023-03-29T08:32:38.708Z,100623.47
2023-03-29T08:33:25.862Z,100616.78
2023-03-29T08:34:13.770Z,100612.97
2023-03-29T08:35:04.167Z,100620.03
2023-03-29T08:35:51.316Z,100617.13
2023-03-29T08:36:38.402Z,100617.25
2023-03-29T08:37:26.157Z,100615.50
2023-03-29T08:38:13.256Z,100608.41
2023-03-29T08:39:02.241Z,100611.84
2023-03-29T08:39:49.608Z,100611.38
2023-03-29T08:40:37.110Z,100614.47
2023-03-29T08:41:30.390Z,100610.00
2023-03-29T08:42:45.249Z,100611.59
2023-03-29T08:43:53.341Z,100610.94
2023-03-29T08:44:54.207Z,100611.50
2023-03-29T08:46:00.425Z,100614.94
2023-03-29T08:47:19.600Z,100609.53
2023-03-29T08:48:12.868Z,100607.31
2023-03-29T08:49:02.937Z,100600.91
2023-03-29T08:49:53.859Z,100607.34
2023-03-29T08:50:48.251Z,100610.25
2023-03-29T08:51:58.159Z,100610.88
2023-03-29T08:52:55.009Z,100595.69
2023-03-29T08:53:48.690Z,100599.13
2023-03-29T08:54:42.015Z,100593.44
2023-03-29T08:55:43.529Z,100596.78
2023-03-29T08:56:34.454Z,100597.22
2023-03-29T08:57:29.769Z,100595.69
2023-03-29T08:58:19.592Z,100592.13
2023-03-29T08:59:17.682Z,100590.66
2023-03-29T09:00:14.275Z,100594.72
2023-03-29T09:01:03.125Z,100593.91
2023-03-29T09:01:55.492Z,100591.41
2023-03-29T09:02:44.299Z,100592.78
2023-03-29T09:03:45.397Z,100586.50
2023-03-29T09:04:38.152Z,100591.53
2023-03-29T09:05:34.756Z,100592.81
2023-03-29T09:06:22.389Z,100588.09
2023-03-29T09:07:10.405Z,100589.47
2023-03-29T09:07:57.635Z,100582.03
2023-03-29T09:08:46.966Z,100589.59
2023-03-29T09:09:35.014Z,100584.03
2023-03-29T09:10:27.592Z,100578.81
2023-03-29T09:11:23.275Z,100572.16
2023-03-29T09:12:29.056Z,100575.00
2023-03-29T09:13:32.730Z,100568.59
2023-03-29T09:14:35.016Z,100571.31
2023-03-29T09:15:31.298Z,100564.97
2023-03-29T09:16:29.602Z,100569.03
2023-03-29T09:17:37.288Z,100565.31
2023-03-29T09:18:35.406Z,100561.94
2023-03-29T09:19:36.071Z,100566.97
2023-03-29T09:20:28.134Z,100564.97
2023-03-29T09:21:26.956Z,100560.28
2023-03-29T09:22:55.675Z,100575.97
2023-03-29T09:24:21.200Z,100559.63
2023-03-29T09:25:29.704Z,100564.47
2023-03-29T09:26:36.207Z,100555.37
2023-03-29T09:27:32.603Z,100561.16
2023-03-29T09:28:22.396Z,100558.28
2023-03-29T09:29:38.443Z,100557.59
2023-03-29T09:30:29.952Z,100558.28
2023-03-29T09:31:27.879Z,100560.78